Relevés horaires Schaffen (Belgique)


Relevés horaires à Schaffen - Mercredi 08 Avr. 2020
Heure UTC1 Température [°C] Vent [km/h] Hum. [%] Pres.4 [hPa] Visi. [Km] Nébu. [octa] Préc.5 [mm] Cond.
2m. Res. Ros. Dir.2 Vit. Moy. Raf.3
23:00 14.9 14.9 3.9 NNO 5.6 -- 7.4 48 1023.3(0.3/3h) 20 -- -- --
22:00 17.5 17.5 2.7 NNO 1.9 -- 5.6 37 1023.2(0.4/3h) 20 -- -- --
21:00 18.0 18.0 3.0 NNO 1.9 -- 5.6 37 1023.1(0.6/3h) 20 -- -- --
20:00 19.1 19.1 2.5 NNO 1.9 -- 3.7 33 1023(0.5/3h) 20 -- -- --
19:00 20.2 20.2 2.3 N 3.7 -- 5.6 30 1022.7(0.1/3h) 20 -- -- --
18:00 22.0 22.0 2.1 NNO 3.7 -- 9.3 27 1022.3(-0.4/3h) 20 -- -- --
17:00 22.7 22.7 4.4 NNO 1.9 -- 3.7 30 1022.3(-0.9/3h) 20 -- -- --
16:00 23.6 23.6 2.6 NNO 1.9 -- 3.7 25 1022.5(-1.2/3h) 20 -- -- --
15:00 23.3 23.3 2.4 NNO 1.9 -- 9.3 25 1022.8(-1.2/3h) 20 -- -- --
14:00 23.8 23.8 1.8 NNO 1.9 -- 9.3 24 1023.2(-1.2/3h) 19 -- -- --
13:00 23.8 23.8 2.9 SSE 3.7 -- 9.3 26 1023.7(-1.3/3h) 20 -- -- --
12:00 23.2 23.2 4.1 NNO 1.9 -- 5.6 29 1024.2(-1.2/3h) 20 -- -- --
11:00 21.5 21.5 8.6 NNO 1.9 -- 5.6 44 1024.5(-0.9/3h) 9 -- -- --
10:00 19.6 19.6 8.9 NNO 1.9 -- 3.7 50 1025.2(-0.5/3h) 18 -- -- --
09:00 16.1 16.1 8.8 NNO 1.9 -- 3.7 62 1025.5(0.0/3h) 14 -- -- --
08:00 15.0 15.0 8.1 NNO 1.9 -- 3.7 63 1025.5(0.2/3h) 19 -- -- --
07:00 11.7 11.7 8.2 NNO 1.9 -- 1.9 79 1025.9(0.2/3h) 10 -- -- --
06:00 9.3 9.3 7.4 NNO 1.9 -- 3.7 88 1025.7(-0.2/3h) 7 -- -- --
05:00 9.2 9.2 7.5 NNO 1.9 -- 3.7 89 1025.5(-1.0/3h) 6 -- -- --
04:00 9.6 9.6 7.4 NNO 1.9 -- 1.9 86 1025.7(-1.1/3h) 8 -- -- --
03:00 10.6 10.6 7.3 NNO 1.9 -- 3.7 80 1026(-1.4/3h) 10 -- -- --
02:00 11.5 11.5 7.8 NNO 1.9 -- 3.7 78 1026.5(-1.0/3h) 12 -- -- --
01:00 11.8 11.8 7.4 NNO 1.9 -- 3.7 74 1026.7(-0.9/3h) 11 -- -- --
00:00 13.5 13.5 7.6 NNO 3.7 -- 5.6 67 1027.4(-0.6/3h) 15 -- -- --

1 Coordinated Universal Time. Actuellement il est 19:00 locale et 17:00 UTC.

2 Le vent souffle depuis la direction indiquée vers la direction oposée.

3 Les rafales max. sont disponible 40 min après l'heure du relevé.

4 Pour les stations d'altitude (plus de 600m) le géopotentiel du niveau le plus proche de la pression obligatoire est indiqué.

5 Les stations disposant d'un diffuseur peuvent indiquer "trace". Cela signifie que des précipitations ont touchés le sol mais que la quantité est inférieure à 0.1 mm.

Récapitulatif de la journée
Température [°C] Vent [km/h] Ensoleillement4 [h] Precipitations totale5 [mm] Pression [Hpa]
Min1 Max.2 Moy.3 Max. Min Max.
9.1 24.7 0 9.3 0 h 0 min 0 1022.3 1027.4

1 Température minimale relevée entre 18:00 UTC la veille et 18:00 UTC le jour donné.

2 Température maximale relevée entre 06:00 UTC le jour donné et 06:00 UTC le lendemain.

3 Vent moyen de la journée basé sur les relevés horaires.

4 Ensoleillement en heures relevé entre 06:00 UTC la veille et 06:00 UTC le jour donné.

5 Précipitations totales tombées entre 06:00 UTC la jour donné et 06:00 UTC le lendemain.

Graphiques horaires